CheckWX is a tool to help pilots better visualize weather data.  It is not intended as a substitute for an official pre-flight weather briefing.

01:09:22 UTC

OPSK TAF
Sukkur Airport
Mirpur Khas, Pakistan
TAF OPSK 232130Z 2400/2424 02008KT 4000 HZ FEW030 SCT100 TEMPO 2400/2404 VRB03KT 1000 BR SCT030 FM241800 05005KT 3000 HZ FEW030 SCT100

Feb-24@
00:00 UTC

Feb-24 @ 00:00 UTC

Feb-24@
18:00 UTC

Feb-24 @ 18:00 UTC

TAF OPSK 232130Z 2400/2424 02008KT 4000 HZ FEW030 SCT100
Wind
  • 020° at 8 KTS
Conditions
Haze
Cloud Levels
  • Few at 3,000' AGL
  • Scattered at 10,000' AGL

Feb-24@
00:00 UTC

Feb-24 @ 00:00 UTC

Feb-24@
04:00 UTC

Feb-24 @ 04:00 UTC

TEMPO 2400/2404 VRB03KT 1000 BR SCT030

Temporary

Temporary Changes expected for less than half the time period

Wind
  • Variable at 3 KTS
Conditions
Mist
Cloud Levels
  • Scattered at 3,000' AGL

Feb-24@
18:00 UTC

Feb-24 @ 18:00 UTC

Feb-25@
00:00 UTC

Feb-25 @ 00:00 UTC

FM241800 05005KT 3000 HZ FEW030 SCT100

From

From Standard forecast or significant change

Wind
  • 050° at 5 KTS
Conditions
Haze
Cloud Levels
  • Few at 3,000' AGL
  • Scattered at 10,000' AGL